EKVG Airport Information

Runway Information
Runway 13 Length 5902 ft width 98 ft
Elevation 268 ft Threshold 0 ft Heading 118
Runway 31 Length 5902 ft Width 98 ft
Elevation 252 ft Threshold 0 ft Heading 298
Airport Frequencies
Type AFIS Name AFIS Frequency 124.85 MHZ
Airport Navaids
Type NDB Name Myggenes Frequency 337 KHZ
Type NDB Name Nolso Frequency 404 KHZ
Type NDB Name Vagar Frequency 348 KHZ
Airport Weather Information & NOTAM
ADDS - METARS form results

(1225 UTC 24 January 2019)
Data provider http://aviationweather.gov/metar/data/
 
METAR text: EKVG 241220Z AUTO 23006KT 200V260 9999NDV BKN019/// BKN110/// 04/01 Q1004
Conditions at: EKVG (SORVAAG/VAGAR , DK) observed 1220 UTC 24 January 2019
Temperature: 4.0°C (39°F)
Dewpoint: 1.0°C (34°F) [RH = 81%]
Pressure (altimeter): 29.65 inches Hg (1004.0 mb)
Winds: from the SW (230 degrees) at 7 MPH (6 knots; 3.1 m/s)
Visibility: missing
Ceiling: 1900 feet AGL
Clouds: broken clouds at 1900 feet AGL
broken clouds at 11000 feet AGL
Weather: no significant weather observed at this time

METAR text: EKVG 241150Z AUTO 24005KT 9999NDV BKN020/// BKN110/// 04/01 Q1004 RMK BKN022/// WIND SKEID 30007KT 220V340
Conditions at: EKVG (SORVAAG/VAGAR , DK) observed 1150 UTC 24 January 2019
Temperature: 4.0°C (39°F)
Dewpoint: 1.0°C (34°F) [RH = 81%]
Pressure (altimeter): 29.65 inches Hg (1004.0 mb)
Winds: from the WSW (240 degrees) at 6 MPH (5 knots; 2.6 m/s)
Visibility: missing
Ceiling: 2000 feet AGL
Clouds: broken clouds at 2000 feet AGL
broken clouds at 11000 feet AGL
Weather: no significant weather observed at this time

Forecast for: EKVG (SORVAAG/VAGAR , DK)
Text: TAF EKVG 241124Z 2412/2421 23010KT 9999 SCT020
Forecast period: 1200 to 1700 UTC 24 January 2019
Forecast type: FROM: standard forecast or significant change
Winds: from the SW (230 degrees) at 12 MPH (10 knots; 5.1 m/s)
Visibility: 6 or more miles 10+ km)
Ceiling: at least 12,000 feet AGL
Clouds: scattered clouds at 2000 feet AGL
Weather: no significant weather forecast for this period
Text: BECMG 2417/2420 14012KT 4000 -RA BKN010
Forecast period: 1700 to 2100 UTC 24 January 2019
Forecast type: BECOMING: Conditions expected to become as follows by 2000 UTC 24 January 2019
Winds: from the SE (140 degrees) at 14 MPH (12 knots; 6.2 m/s)
Visibility: 2.49 miles (4.01 km)
Ceiling: 1000 feet AGL
Clouds: broken clouds at 1000 feet AGL
Weather: -RA  (light rain)
Text: TEMPO 2420/2421 2000 -RASN BKN004
Forecast period: 2000 to 2100 UTC 24 January 2019
Forecast type: TEMPORARY: The following changes expected for less than half the time period
Visibility: 1.24 miles (2.00 km)
Ceiling: 400 feet AGL
Clouds: broken clouds at 400 feet AGL
Weather: -RA -SN  (light rain, light snow)